Time;durP1;ratioP1;P1;durP2;ratioP2;P2;SDS_P1;SDS_P2;PMS_P1;PMS_P2;Temp;Humidity;BMP_temperature;BMP_pressure;BME280_temperature;BME280_humidity;BME280_pressure;Samples;Min_cycle;Max_cycle;Signal;HPM_P1;HPM_P2
2020/12/23 00:04:09;;;;;;;17.60;9.87;;;;;;;6.48;89.17;98618.38;261418;1101;23420;-75
2020/12/23 00:09:11;;;;;;;15.53;9.80;;;;;;;6.51;89.21;98628.48;261454;1101;23323;-76
2020/12/23 00:14:14;;;;;;;15.27;9.43;;;;;;;6.53;89.16;98637.00;261440;1101;26833;-75
2020/12/23 00:19:16;;;;;;;15.53;9.80;;;;;;;6.60;89.17;98647.39;261488;1101;23353;-76
2020/12/23 00:24:18;;;;;;;15.90;9.93;;;;;;;6.62;89.82;98651.39;261476;1101;23411;-76
2020/12/23 00:29:20;;;;;;;13.87;9.20;;;;;;;6.65;89.24;98650.06;261463;1101;23356;-76
2020/12/23 00:34:23;;;;;;;14.10;9.07;;;;;;;6.65;88.97;98650.84;261581;1102;23387;-76
2020/12/23 00:39:25;;;;;;;13.57;8.07;;;;;;;6.61;89.20;98651.66;261371;1101;23522;-76
2020/12/23 00:44:27;;;;;;;11.87;8.30;;;;;;;6.62;89.22;98654.05;261620;1101;23392;-77
2020/12/23 00:49:29;;;;;;;14.20;8.33;;;;;;;6.63;88.65;98662.83;261559;1101;23591;-76
2020/12/23 00:54:32;;;;;;;12.85;7.75;;;;;;;6.63;89.16;98658.31;261280;1101;23497;-76
2020/12/23 00:59:35;;;;;;;10.53;6.70;;;;;;;6.64;89.27;98659.11;261742;1101;23359;-75
2020/12/23 01:04:38;;;;;;;11.33;7.63;;;;;;;6.62;89.41;98646.06;261375;1101;23459;-75
2020/12/23 01:09:40;;;;;;;13.47;8.97;;;;;;;6.63;89.11;98642.34;261439;1101;27127;-76
2020/12/23 01:14:42;;;;;;;13.40;8.80;;;;;;;6.64;88.63;98643.92;261420;1101;23470;-75
2020/12/23 01:19:45;;;;;;;12.25;7.95;;;;;;;6.63;89.20;98662.83;261422;1101;23357;-76
2020/12/23 01:24:47;;;;;;;15.63;8.93;;;;;;;6.62;89.30;98662.03;261501;1101;23733;-76
2020/12/23 01:29:49;;;;;;;13.25;8.40;;;;;;;6.63;88.93;98657.50;261456;1102;23963;-76
2020/12/23 01:34:51;;;;;;;13.73;9.13;;;;;;;6.63;88.81;98666.30;261371;1101;23392;-75
2020/12/23 01:39:53;;;;;;;13.10;8.40;;;;;;;6.63;89.26;98657.50;261433;1101;23380;-75
2020/12/23 01:44:55;;;;;;;14.27;8.47;;;;;;;6.62;88.79;98662.03;261494;1101;23359;-76
2020/12/23 01:49:57;;;;;;;21.90;13.20;;;;;;;6.62;88.54;98678.00;261485;1101;23366;-75
2020/12/23 01:55:00;;;;;;;28.23;15.43;;;;;;;6.59;89.32;98667.89;261595;1101;23365;-75
2020/12/23 02:00:07;;;;;;;24.50;15.47;;;;;;;6.58;88.70;98660.17;261404;1101;26848;-76
2020/12/23 02:05:15;;;;;;;30.05;18.25;;;;;;;6.61;88.68;98660.43;261501;1101;23365;-75
2020/12/23 02:10:17;;;;;;;24.57;16.67;;;;;;;6.63;88.41;98645.01;261391;1101;23354;-76
2020/12/23 02:15:19;;;;;;;25.20;16.57;;;;;;;6.63;88.37;98658.31;261431;1101;23408;-76
2020/12/23 02:20:21;;;;;;;26.93;16.77;;;;;;;6.74;88.89;98676.95;261577;1101;23358;-76
2020/12/23 02:25:24;;;;;;;24.70;14.00;;;;;;;6.79;88.63;98668.98;261473;1101;23343;-76
2020/12/23 02:30:26;;;;;;;22.75;13.30;;;;;;;6.77;88.62;98671.09;261567;1101;23354;-76
2020/12/23 02:35:29;;;;;;;20.77;13.70;;;;;;;6.80;88.19;98657.23;261669;1102;23365;-75
2020/12/23 02:40:31;;;;;;;19.40;12.20;;;;;;;6.77;88.63;98653.27;261195;1102;23360;-75
2020/12/23 02:45:33;;;;;;;17.95;11.50;;;;;;;6.71;88.36;98659.64;261584;1101;23938;-76
2020/12/23 02:50:35;;;;;;;20.85;13.50;;;;;;;6.64;87.95;98672.41;261724;1101;23380;-76
2020/12/23 02:55:37;;;;;;;18.47;12.43;;;;;;;6.64;88.19;98675.86;261618;1102;23390;-76
2020/12/23 03:00:39;;;;;;;15.17;9.83;;;;;;;6.69;88.85;98667.11;261640;1101;23813;-76
2020/12/23 03:05:41;;;;;;;18.60;12.00;;;;;;;6.71;88.52;98653.53;261461;1101;23932;-77
2020/12/23 03:10:43;;;;;;;20.80;12.85;;;;;;;6.71;88.39;98654.31;261523;1101;23441;-76
2020/12/23 03:15:46;;;;;;;13.60;10.10;;;;;;;6.71;88.20;98653.53;261450;1101;23391;-75
2020/12/23 03:20:47;;;;;;;20.10;11.53;;;;;;;6.74;88.79;98659.10;261602;1101;23431;-76
2020/12/23 03:25:50;;;;;;;14.50;9.80;;;;;;;6.80;88.32;98666.05;261416;1101;23378;-76
2020/12/23 03:30:52;;;;;;;21.13;13.17;;;;;;;6.78;88.08;98651.39;261422;1101;23421;-76
2020/12/23 03:35:57;;;;;;;29.33;18.80;;;;;;;6.73;87.81;98654.05;261482;1102;23371;-76
2020/12/23 03:40:59;;;;;;;22.53;14.13;;;;;;;6.73;88.10;98654.05;261599;1101;23417;-76
2020/12/23 03:46:01;;;;;;;23.30;13.10;;;;;;;6.67;88.39;98642.59;261417;1102;23353;-76
2020/12/23 03:51:03;;;;;;;18.97;13.43;;;;;;;6.65;87.87;98645.53;261434;1101;23405;-77
2020/12/23 03:56:06;;;;;;;22.17;14.43;;;;;;;6.61;88.30;98655.11;261465;1101;23556;-76
2020/12/23 04:01:08;;;;;;;28.67;18.67;;;;;;;6.58;88.03;98642.33;261437;1102;23417;-75
2020/12/23 04:06:10;;;;;;;23.95;16.25;;;;;;;6.52;88.44;98646.06;261490;1101;23399;-77
2020/12/23 04:11:12;;;;;;;30.27;17.97;;;;;;;6.48;88.05;98647.66;261362;1101;23389;-77
2020/12/23 04:16:14;;;;;;;30.17;18.50;;;;;;;6.48;88.35;98659.09;261497;1101;23377;-76
2020/12/23 04:21:16;;;;;;;27.37;16.80;;;;;;;6.47;88.22;98652.16;261569;1101;23354;-76
2020/12/23 04:26:18;;;;;;;25.00;15.60;;;;;;;6.45;88.44;98651.64;261480;1101;23365;-76
2020/12/23 04:31:20;;;;;;;27.05;16.90;;;;;;;6.43;88.26;98647.64;261386;1101;23443;-76
2020/12/23 04:36:23;;;;;;;27.55;16.90;;;;;;;6.45;88.64;98662.28;261422;1102;23428;-76
2020/12/23 04:41:27;;;;;;;24.37;15.03;;;;;;;6.47;88.78;98654.03;261340;1101;23416;-75
2020/12/23 04:46:33;;;;;;;26.47;16.43;;;;;;;6.46;88.93;98644.44;261509;1101;26539;-75
2020/12/23 04:51:37;;;;;;;31.00;17.95;;;;;;;6.50;89.40;98642.85;261465;1101;23374;-76
2020/12/23 04:56:40;;;;;;;30.20;18.95;;;;;;;6.52;89.40;98619.45;261580;1102;23389;-76
2020/12/23 05:01:43;;;;;;;31.10;18.17;;;;;;;6.56;88.67;98628.50;261597;1101;23448;-76
2020/12/23 05:06:47;;;;;;;26.07;16.13;;;;;;;6.59;89.37;98641.28;261488;1101;23407;-76
2020/12/23 05:11:49;;;;;;;30.63;18.33;;;;;;;6.61;88.98;98627.70;261557;1101;23354;-75
2020/12/23 05:16:52;;;;;;;30.23;17.63;;;;;;;6.65;89.19;98642.86;261545;1101;23405;-75
2020/12/23 05:21:57;;;;;;;30.70;18.40;;;;;;;6.68;89.12;98623.69;261484;1101;23356;-74
2020/12/23 05:27:01;;;;;;;30.03;16.83;;;;;;;6.73;89.46;98632.75;261492;1101;23418;-76
2020/12/23 05:32:04;;;;;;;38.27;23.73;;;;;;;6.72;89.73;98639.16;261630;1101;24362;-74
2020/12/23 05:37:07;;;;;;;40.67;23.17;;;;;;;6.81;89.76;98629.55;261622;1101;23411;-75
2020/12/23 05:42:09;;;;;;;44.80;25.17;;;;;;;6.89;89.57;98628.23;261420;1101;23358;-76
2020/12/23 05:47:19;;;;;;;41.73;24.83;;;;;;;6.96;89.88;98629.55;261514;1101;23542;-75
2020/12/23 05:52:22;;;;;;;44.53;26.20;;;;;;;7.03;89.73;98634.61;261604;1101;23365;-76
2020/12/23 05:57:24;;;;;;;50.40;26.90;;;;;;;7.15;89.68;98643.13;261563;1101;23353;-76
2020/12/23 06:02:29;;;;;;;46.53;25.93;;;;;;;7.22;89.66;98652.69;261471;1101;23559;-76
2020/12/23 06:07:31;;;;;;;50.33;27.43;;;;;;;7.29;89.68;98648.69;262033;1101;23320;-75
2020/12/23 06:12:38;;;;;;;49.47;27.27;;;;;;;7.36;89.63;98654.54;261596;1101;23355;-76
2020/12/23 06:17:45;;;;;;;50.37;28.80;;;;;;;7.42;89.69;98649.20;261546;1101;28305;-76
2020/12/23 06:22:50;;;;;;;46.33;27.37;;;;;;;7.50;90.11;98645.99;261779;1101;23353;-76
2020/12/23 06:27:53;;;;;;;50.63;30.13;;;;;;;7.50;89.35;98657.44;261874;1101;26443;-77
2020/12/23 06:33:01;;;;;;;49.00;29.33;;;;;;;7.36;88.74;98665.20;262341;1101;23442;-78
2020/12/23 06:38:19;;;;;;;53.10;30.13;;;;;;;7.34;89.51;98656.69;261683;1101;23429;-79
2020/12/23 06:43:53;;;;;;;52.50;30.17;;;;;;;7.38;90.00;98664.92;261737;1101;23341;-77
2020/12/23 06:49:13;;;;;;;47.00;27.73;;;;;;;7.42;89.88;98659.87;262553;1102;23319;-76
2020/12/23 06:54:48;;;;;;;46.50;28.20;;;;;;;7.38;89.88;98664.92;263734;1096;23420;-76
2020/12/23 06:59:50;;;;;;;43.93;26.73;;;;;;;7.48;90.21;98664.11;263951;1096;23337;-76
2020/12/23 07:04:54;;;;;;;40.73;24.97;;;;;;;7.51;89.85;98680.37;262437;1102;23405;-76
2020/12/23 07:10:19;;;;;;;30.77;19.37;;;;;;;7.53;89.29;98675.55;262555;1102;24018;-74
2020/12/23 07:15:23;;;;;;;36.77;23.20;;;;;;;7.46;89.42;98674.25;262395;1101;26486;-75
2020/12/23 07:20:26;;;;;;;32.10;19.17;;;;;;;7.46;89.63;98659.05;262336;1101;23350;-75
2020/12/23 07:25:28;;;;;;;36.73;22.33;;;;;;;7.43;90.13;98662.26;262020;1101;23392;-76
2020/12/23 07:30:35;;;;;;;64.27;35.97;;;;;;;7.47;90.06;98641.17;262105;1101;23418;-76
2020/12/23 07:35:38;;;;;;;59.13;34.27;;;;;;;7.46;89.89;98645.72;262173;1101;23390;-76
2020/12/23 07:40:41;;;;;;;59.30;33.65;;;;;;;7.51;89.76;98639.57;262187;1101;23559;-76
2020/12/23 07:45:44;;;;;;;54.43;32.80;;;;;;;7.51;90.46;98647.56;262326;1101;23555;-76
2020/12/23 07:50:49;;;;;;;44.37;26.17;;;;;;;7.54;90.00;98655.83;262591;1101;23412;-75
2020/12/23 07:56:00;;;;;;;45.57;25.40;;;;;;;7.56;90.32;98662.77;262374;1101;23558;-76
2020/12/23 08:01:07;;;;;;;46.15;26.35;;;;;;;7.67;90.98;98669.66;262005;1101;23350;-76
2020/12/23 08:06:11;;;;;;;38.20;21.60;;;;;;;7.81;91.12;98676.01;262464;1101;23405;-76
2020/12/23 08:11:15;;;;;;;34.95;20.65;;;;;;;7.79;90.26;98677.34;262391;1101;23417;-77
2020/12/23 08:16:17;;;;;;;31.90;19.90;;;;;;;7.76;90.51;98669.89;262206;1101;23405;-77
2020/12/23 08:21:19;;;;;;;31.85;20.05;;;;;;;7.75;90.06;98662.95;262596;1096;24094;-76
2020/12/23 08:26:21;;;;;;;31.43;18.87;;;;;;;7.81;90.49;98664.55;262296;1101;23683;-77
2020/12/23 08:31:30;;;;;;;28.90;17.63;;;;;;;7.87;90.95;98674.91;262137;1101;23460;-77
2020/12/23 08:36:34;;;;;;;21.53;14.83;;;;;;;8.00;90.93;98681.55;262142;1097;23539;-77
2020/12/23 08:41:36;;;;;;;25.73;16.73;;;;;;;8.05;90.76;98673.50;261913;1101;26322;-77
2020/12/23 08:46:39;;;;;;;33.80;18.80;;;;;;;8.11;90.54;98668.94;261938;1101;23518;-76
2020/12/23 08:51:41;;;;;;;37.30;19.03;;;;;;;8.14;90.37;98683.61;262030;1101;27862;-76
2020/12/23 08:56:48;;;;;;;32.23;18.17;;;;;;;8.18;90.34;98673.98;262471;1101;23677;-76
2020/12/23 09:01:50;;;;;;;31.77;17.33;;;;;;;8.25;90.48;98673.69;262558;1101;23829;-77
2020/12/23 09:06:58;;;;;;;26.47;16.97;;;;;;;8.27;90.11;98677.68;262001;1096;23824;-77
2020/12/23 09:12:02;;;;;;;23.93;15.27;;;;;;;8.29;90.13;98674.73;262204;1093;24223;-73
2020/12/23 09:17:22;;;;;;;26.03;16.37;;;;;;;8.28;90.21;98665.94;262176;1101;23477;-75
2020/12/23 09:22:29;;;;;;;24.47;16.67;;;;;;;8.34;90.15;98648.81;262012;1101;23683;-75
2020/12/23 09:27:31;;;;;;;24.97;16.37;;;;;;;8.32;89.92;98621.58;262397;1101;23447;-74
2020/12/23 09:32:34;;;;;;;25.87;16.00;;;;;;;8.29;90.12;98608.02;262209;1101;23420;-75
2020/12/23 09:37:36;;;;;;;27.77;16.70;;;;;;;8.28;90.37;98630.43;263634;1101;26437;-75
2020/12/23 09:42:39;;;;;;;33.90;20.65;;;;;;;8.30;89.87;98629.08;263651;1101;23488;-75
2020/12/23 09:47:42;;;;;;;41.40;26.10;;;;;;;8.34;90.28;98632.01;261991;1101;23441;-75
2020/12/23 09:52:45;;;;;;;47.40;27.27;;;;;;;8.38;90.37;98615.16;262629;1096;23373;-75
2020/12/23 09:57:47;;;;;;;49.43;28.93;;;;;;;8.52;90.94;98594.00;261971;1101;23556;-75
2020/12/23 10:02:49;;;;;;;53.77;35.87;;;;;;;8.76;91.36;98587.94;262137;1101;28234;-75
2020/12/23 10:07:53;;;;;;;49.13;28.63;;;;;;;9.00;91.58;98590.64;262236;1101;23422;-76
2020/12/23 10:12:56;;;;;;;42.00;27.70;;;;;;;9.25;91.60;98583.45;262930;1101;23392;-75
2020/12/23 10:17:59;;;;;;;60.70;35.67;;;;;;;9.38;91.16;98606.81;262669;1101;23331;-75
2020/12/23 10:23:01;;;;;;;38.57;24.33;;;;;;;9.26;89.44;98606.41;262690;1095;23860;-75
2020/12/23 10:28:03;;;;;;;46.00;29.37;;;;;;;9.07;89.19;98598.33;262209;1101;23461;-76
2020/12/23 10:33:06;;;;;;;41.50;26.50;;;;;;;8.98;89.63;98602.69;262271;1101;23401;-75
2020/12/23 10:38:08;;;;;;;44.53;28.90;;;;;;;8.93;89.74;98598.19;262202;1093;23332;-74
2020/12/23 10:43:10;;;;;;;39.50;27.25;;;;;;;8.87;89.76;98597.45;262215;1101;23405;-74
2020/12/23 10:48:13;;;;;;;42.17;26.40;;;;;;;8.88;89.62;98595.56;262157;1101;23458;-75
2020/12/23 10:53:15;;;;;;;42.63;27.03;;;;;;;8.96;90.01;98589.61;262230;1101;26836;-74
2020/12/23 10:58:17;;;;;;;44.97;27.60;;;;;;;9.00;90.12;98577.28;262749;1101;23420;-75
2020/12/23 11:03:19;;;;;;;48.03;27.93;;;;;;;9.11;90.27;98587.86;262069;1101;23559;-76
2020/12/23 11:08:21;;;;;;;39.30;23.00;;;;;;;9.16;89.72;98569.11;262156;1101;23408;-75
2020/12/23 11:13:24;;;;;;;41.70;24.60;;;;;;;9.22;89.57;98568.77;262265;1096;23373;-75
2020/12/23 11:18:26;;;;;;;40.93;24.53;;;;;;;9.26;89.61;98577.00;261979;1101;23382;-75
2020/12/23 11:23:28;;;;;;;36.95;22.75;;;;;;;9.28;89.61;98582.09;262182;1101;23426;-75
2020/12/23 11:28:32;;;;;;;34.10;22.17;;;;;;;9.34;90.09;98576.38;262455;1101;23360;-75
2020/12/23 11:33:34;;;;;;;32.80;19.43;;;;;;;9.36;89.45;98573.42;262917;1101;23422;-76
2020/12/23 11:38:36;;;;;;;36.20;22.80;;;;;;;9.38;89.29;98572.06;262946;1101;23906;-75
2020/12/23 11:43:39;;;;;;;32.53;21.03;;;;;;;9.44;89.00;98569.34;262559;1101;23374;-76
2020/12/23 11:48:42;;;;;;;31.93;21.90;;;;;;;9.40;88.82;98575.27;263418;1100;23322;-76
2020/12/23 11:53:44;;;;;;;33.43;21.23;;;;;;;9.38;89.04;98561.37;262322;1102;23357;-74
2020/12/23 11:58:46;;;;;;;42.30;24.95;;;;;;;9.37;89.11;98565.14;261954;1101;23353;-76
2020/12/23 12:03:48;;;;;;;39.90;24.57;;;;;;;9.34;89.08;98568.36;261853;1101;23341;-75
2020/12/23 12:08:50;;;;;;;42.07;25.10;;;;;;;9.31;89.05;98563.59;262025;1101;23910;-76
2020/12/23 12:13:52;;;;;;;57.60;31.90;;;;;;;9.30;89.64;98553.97;262162;1101;23339;-76
2020/12/23 12:18:55;;;;;;;49.57;30.83;;;;;;;9.36;89.44;98558.20;261898;1101;23353;-77
2020/12/23 12:23:57;;;;;;;49.17;31.43;;;;;;;9.43;89.79;98565.88;261954;1101;23350;-77
2020/12/23 12:29:00;;;;;;;52.83;32.37;;;;;;;9.44;89.56;98572.80;262098;1101;23416;-76
2020/12/23 12:34:02;;;;;;;59.47;35.63;;;;;;;9.43;89.56;98581.92;262272;1101;23815;-77
2020/12/23 12:39:04;;;;;;;52.40;32.57;;;;;;;9.47;89.47;98590.15;262013;1101;23359;-77
2020/12/23 12:44:06;;;;;;;57.30;34.55;;;;;;;9.44;89.39;98591.52;262443;1101;23616;-76
2020/12/23 12:49:08;;;;;;;50.20;30.87;;;;;;;9.38;89.02;98596.13;262110;1101;23402;-77
2020/12/23 12:54:11;;;;;;;50.20;31.83;;;;;;;9.36;89.41;98595.62;262250;1101;23555;-77
2020/12/23 12:59:13;;;;;;;58.87;34.50;;;;;;;9.43;90.01;98603.31;262169;1101;23347;-76
2020/12/23 13:04:15;;;;;;;50.05;31.05;;;;;;;9.53;89.90;98602.40;262690;1101;23422;-77
2020/12/23 13:09:17;;;;;;;51.70;30.35;;;;;;;9.58;89.36;98596.97;263511;1101;23366;-78
2020/12/23 13:14:19;;;;;;;47.83;29.00;;;;;;;9.68;89.64;98596.86;262997;1101;23579;-78
2020/12/23 13:19:22;;;;;;;45.65;27.50;;;;;;;9.73;89.29;98582.63;262091;1096;23527;-77
2020/12/23 13:24:24;;;;;;;48.90;29.90;;;;;;;9.78;89.65;98585.23;262214;1101;23330;-77
2020/12/23 13:29:26;;;;;;;48.40;27.67;;;;;;;9.82;89.47;98593.47;262705;1102;23350;-78
2020/12/23 13:34:29;;;;;;;45.70;27.83;;;;;;;9.82;89.12;98596.95;262283;1101;23457;-77
2020/12/23 13:40:03;;;;;;;50.47;30.40;;;;;;;9.84;89.63;98597.45;251424;1148;26840;-78
2020/12/23 13:45:07;;;;;;;51.10;30.30;;;;;;;9.89;89.37;98577.85;251453;1150;23001;-77
2020/12/23 13:50:10;;;;;;;51.27;30.40;;;;;;;9.91;89.30;98579.16;254388;1149;23956;-78
2020/12/23 13:55:12;;;;;;;52.23;32.10;;;;;;;9.89;88.59;98569.83;250265;1150;26394;-77
2020/12/23 14:00:15;;;;;;;58.70;35.80;;;;;;;9.77;88.13;98570.27;250263;1151;22928;-78
2020/12/23 14:05:17;;;;;;;75.90;42.47;;;;;;;9.64;88.35;98569.09;250117;1151;22928;-79
2020/12/23 14:10:24;;;;;;;74.17;42.60;;;;;;;9.56;88.13;98567.05;250280;1150;22925;-76
2020/12/23 14:15:26;;;;;;;73.10;42.20;;;;;;;9.52;88.14;98560.69;250679;1150;23714;-74
2020/12/23 14:20:28;;;;;;;77.37;44.10;;;;;;;9.47;88.68;98552.72;250328;1149;27080;-74
2020/12/23 14:25:30;;;;;;;76.10;45.23;;;;;;;9.45;88.58;98561.03;250245;1151;23330;-75
2020/12/23 14:30:32;;;;;;;68.43;42.10;;;;;;;9.40;88.99;98553.06;250288;1150;23002;-79
2020/12/23 14:35:35;;;;;;;69.00;42.63;;;;;;;9.38;89.09;98557.91;250289;1150;23156;-78
2020/12/23 14:40:37;;;;;;;67.60;38.70;;;;;;;9.36;89.20;98566.22;250044;1150;22894;-78
2020/12/23 14:45:39;;;;;;;59.40;34.87;;;;;;;9.31;89.03;98562.81;250460;1150;22896;-78
2020/12/23 14:50:42;;;;;;;53.80;30.23;;;;;;;9.30;89.18;98559.32;249701;1135;124729;-77
2020/12/23 14:55:45;;;;;;;52.00;28.97;;;;;;;9.35;89.89;98561.95;249828;1153;22969;-78
2020/12/23 15:00:47;;;;;;;50.80;29.65;;;;;;;9.35;89.20;98555.81;249983;1151;25893;-76
2020/12/23 15:05:49;;;;;;;48.57;27.03;;;;;;;9.31;89.20;98550.23;250179;1154;22927;-77
2020/12/23 15:10:51;;;;;;;50.83;27.23;;;;;;;9.28;89.58;98550.80;249855;1151;27588;-76
2020/12/23 15:15:53;;;;;;;46.67;26.67;;;;;;;9.25;89.12;98546.03;249981;1154;24208;-75
2020/12/23 15:21:00;;;;;;;50.57;28.40;;;;;;;9.22;89.06;98541.27;249730;1151;22976;-77
2020/12/23 15:26:02;;;;;;;47.73;26.43;;;;;;;9.17;89.45;98527.95;249483;1151;22950;-76
2020/12/23 15:31:14;;;;;;;42.80;23.43;;;;;;;9.12;89.29;98531.48;249639;1154;22956;-78
2020/12/23 15:36:17;;;;;;;44.07;24.13;;;;;;;9.04;89.19;98534.77;249487;1154;22963;-76
2020/12/23 15:41:19;;;;;;;41.23;22.77;;;;;;;8.95;89.02;98536.47;249543;1154;22928;-78
2020/12/23 15:46:21;;;;;;;46.00;24.77;;;;;;;8.88;88.67;98542.13;249367;1151;22927;-79
2020/12/23 15:51:23;;;;;;;45.90;22.55;;;;;;;8.83;89.12;98540.32;249513;1154;23076;-77
2020/12/23 15:56:25;;;;;;;49.80;24.03;;;;;;;8.83;89.75;98526.96;249461;1154;22914;-77
2020/12/23 16:01:28;;;;;;;41.13;22.80;;;;;;;8.84;89.62;98522.41;249458;1159;23079;-77
2020/12/23 16:06:30;;;;;;;41.73;24.57;;;;;;;8.86;89.61;98520.27;249537;1153;22956;-78
2020/12/23 16:11:32;;;;;;;45.90;23.80;;;;;;;8.88;89.99;98507.41;249582;1154;23028;-79
2020/12/23 16:16:34;;;;;;;38.63;21.80;;;;;;;8.89;89.83;98493.77;249172;1154;23213;-77
2020/12/23 16:21:36;;;;;;;40.50;20.60;;;;;;;8.90;89.99;98492.69;249273;1151;22950;-77
2020/12/23 16:26:39;;;;;;;46.35;23.30;;;;;;;8.95;89.93;98486.48;249249;1159;22884;-75
2020/12/23 16:31:41;;;;;;;43.20;22.87;;;;;;;8.95;89.71;98483.81;249315;1154;22935;-77
2020/12/23 16:36:43;;;;;;;42.47;23.90;;;;;;;8.90;89.81;98481.22;249284;1158;22934;-75
2020/12/23 16:41:46;;;;;;;54.13;28.13;;;;;;;8.88;89.98;98459.33;249286;1154;22987;-78
2020/12/23 16:47:07;;;;;;;41.90;21.85;;;;;;;8.90;89.88;98468.65;249334;1154;22931;-76
2020/12/23 16:52:10;;;;;;;48.10;25.93;;;;;;;8.89;90.04;98472.39;249381;1154;22935;-77
2020/12/23 16:57:13;;;;;;;37.17;19.37;;;;;;;8.90;90.22;98457.18;249160;1154;23094;-76
2020/12/23 17:02:15;;;;;;;43.73;24.00;;;;;;;8.89;89.91;98463.59;249383;1154;23012;-77
2020/12/23 17:07:17;;;;;;;42.40;21.80;;;;;;;8.89;90.12;98459.04;249464;1154;23350;-77
2020/12/23 17:12:20;;;;;;;34.60;19.97;;;;;;;8.95;90.10;98465.12;249557;1154;22961;-77
2020/12/23 17:17:22;;;;;;;39.27;21.67;;;;;;;8.95;90.14;98457.10;248858;1159;23428;-75
2020/12/23 17:22:23;;;;;;;38.70;22.10;;;;;;;8.95;90.15;98446.41;249287;1154;22942;-75
2020/12/23 17:27:26;;;;;;;34.65;20.30;;;;;;;8.97;90.26;98452.28;249371;1159;22948;-77
2020/12/23 17:32:29;;;;;;;36.70;21.25;;;;;;;9.01;89.97;98447.15;250023;1151;22938;-77
2020/12/23 17:37:31;;;;;;;33.35;19.55;;;;;;;9.05;90.64;98445.50;250217;1156;23098;-76
2020/12/23 17:42:41;;;;;;;39.47;20.70;;;;;;;9.11;90.50;98440.88;250314;1148;22984;-77
2020/12/23 17:47:44;;;;;;;35.80;21.43;;;;;;;9.11;90.53;98441.70;250057;1151;22986;-77
2020/12/23 17:52:46;;;;;;;39.40;20.87;;;;;;;9.09;90.11;98430.48;250201;1149;22947;-75
2020/12/23 17:57:48;;;;;;;39.57;22.40;;;;;;;9.06;89.80;98426.51;250062;1151;23096;-76
2020/12/23 18:02:50;;;;;;;41.00;22.95;;;;;;;9.08;90.04;98413.67;250080;1148;23387;-77
2020/12/23 18:07:52;;;;;;;45.77;24.63;;;;;;;9.11;90.10;98406.15;250135;1148;26060;-76
2020/12/23 18:12:57;;;;;;;47.57;26.80;;;;;;;9.08;90.09;98394.18;250179;1148;23001;-75
2020/12/23 18:17:59;;;;;;;57.80;31.50;;;;;;;9.05;89.97;98387.53;250010;1148;22952;-77
2020/12/23 18:23:01;;;;;;;55.70;32.23;;;;;;;9.07;89.91;98381.90;250129;1147;22928;-79
2020/12/23 18:28:04;;;;;;;61.27;34.80;;;;;;;9.07;89.94;98361.30;250393;1152;22934;-77
2020/12/23 18:33:05;;;;;;;54.40;34.25;;;;;;;9.07;89.99;98374.66;250261;1148;23079;-76
2020/12/23 18:38:08;;;;;;;71.20;40.50;;;;;;;9.00;90.15;98358.20;250062;1148;22980;-78
2020/12/23 18:43:10;;;;;;;56.60;32.10;;;;;;;8.98;89.79;98336.33;250373;1148;22925;-77
2020/12/23 18:48:13;;;;;;;68.43;37.87;;;;;;;8.89;89.27;98330.81;250037;1151;22889;-77
2020/12/23 18:53:16;;;;;;;65.57;36.63;;;;;;;8.85;89.70;98334.36;249995;1151;23089;-77
2020/12/23 18:58:18;;;;;;;61.70;36.10;;;;;;;8.86;89.70;98323.39;250037;1148;22925;-77
2020/12/23 19:03:20;;;;;;;65.73;37.77;;;;;;;8.88;89.96;98318.56;250214;1148;23008;-78
2020/12/23 19:08:22;;;;;;;64.93;38.80;;;;;;;8.83;89.63;98329.31;250449;1148;22951;-77
2020/12/23 19:13:25;;;;;;;55.60;32.20;;;;;;;8.85;90.00;98329.02;250071;1150;22941;-77
2020/12/23 19:18:28;;;;;;;52.55;30.90;;;;;;;8.87;90.11;98310.81;250265;1156;22941;-75
2020/12/23 19:23:34;;;;;;;48.90;28.70;;;;;;;8.86;89.73;98306.58;250030;1148;23406;-76
2020/12/23 19:28:36;;;;;;;49.70;29.60;;;;;;;8.78;89.85;98301.87;250155;1148;23120;-76
2020/12/23 19:33:38;;;;;;;51.65;29.55;;;;;;;8.67;89.84;98304.66;250154;1150;22945;-79
2020/12/23 19:38:42;;;;;;;56.13;32.93;;;;;;;8.58;89.90;98293.05;250191;1151;22935;-77
2020/12/23 19:43:44;;;;;;;69.77;39.77;;;;;;;8.53;89.88;98280.57;250019;1148;27154;-76
2020/12/23 19:48:46;;;;;;;78.40;44.87;;;;;;;8.45;89.75;98289.21;250255;1151;22889;-77
2020/12/23 19:53:49;;;;;;;81.53;45.43;;;;;;;8.43;89.68;98288.66;250253;1148;22996;-77
2020/12/23 19:58:51;;;;;;;75.55;45.55;;;;;;;8.45;90.14;98277.72;250213;1148;22943;-77
2020/12/23 20:03:54;;;;;;;74.00;43.95;;;;;;;8.46;90.13;98277.44;249881;1150;22948;-76
2020/12/23 20:08:56;;;;;;;66.30;38.75;;;;;;;8.48;90.15;98253.12;250171;1150;22925;-78
2020/12/23 20:13:58;;;;;;;69.23;40.40;;;;;;;8.46;89.89;98255.30;250133;1148;22925;-76
2020/12/23 20:19:00;;;;;;;75.77;39.87;;;;;;;8.48;90.55;98242.44;250371;1147;22949;-76
2020/12/23 20:24:02;;;;;;;71.43;39.17;;;;;;;8.52;90.13;98243.45;250294;1148;22971;-79
2020/12/23 20:29:06;;;;;;;68.23;39.87;;;;;;;8.54;90.37;98233.30;250147;1148;23015;-76
2020/12/23 20:34:09;;;;;;;66.27;38.13;;;;;;;8.55;90.13;98222.33;250174;1155;22944;-78
2020/12/23 20:39:14;;;;;;;73.83;39.47;;;;;;;8.52;90.07;98208.75;250459;1148;22947;-79
2020/12/23 20:44:16;;;;;;;77.30;41.90;;;;;;;8.46;90.21;98194.69;250331;1147;22922;-78
2020/12/23 20:49:18;;;;;;;74.47;37.97;;;;;;;8.45;89.99;98178.96;249990;1150;22956;-77
2020/12/23 20:54:20;;;;;;;65.90;35.67;;;;;;;8.40;89.95;98177.14;249989;1151;22953;-78
2020/12/23 20:59:23;;;;;;;57.10;32.60;;;;;;;8.38;90.16;98166.75;250034;1150;23057;-78
2020/12/23 21:04:28;;;;;;;62.60;34.03;;;;;;;8.41;90.14;98162.72;250174;1148;25886;-77
2020/12/23 21:09:30;;;;;;;60.17;34.27;;;;;;;8.42;90.00;98142.14;250176;1148;22976;-77
2020/12/23 21:14:32;;;;;;;67.73;37.97;;;;;;;8.44;90.17;98138.11;250103;1150;22953;-76
2020/12/23 21:19:34;;;;;;;63.87;37.50;;;;;;;8.45;90.00;98133.58;249997;1148;23117;-77
2020/12/23 21:24:36;;;;;;;71.95;41.30;;;;;;;8.47;90.10;98123.42;249997;1156;23111;-77
2020/12/23 21:29:38;;;;;;;67.90;40.00;;;;;;;8.52;90.31;98128.67;249995;1150;22956;-77
2020/12/23 21:34:41;;;;;;;72.20;42.23;;;;;;;8.56;90.25;98125.15;250333;1148;22950;-77
2020/12/23 21:39:43;;;;;;;58.67;36.33;;;;;;;8.56;90.00;98124.34;250016;1151;23001;-76
2020/12/23 21:44:45;;;;;;;69.17;37.80;;;;;;;8.53;90.01;98120.39;250285;1148;23108;-76
2020/12/23 21:49:47;;;;;;;76.27;40.67;;;;;;;8.52;90.03;98116.13;250314;1148;22938;-78
2020/12/23 21:54:49;;;;;;;66.30;39.20;;;;;;;8.56;90.04;98116.33;250478;1155;22925;-77
2020/12/23 21:59:51;;;;;;;65.53;38.47;;;;;;;8.61;90.33;98102.13;250590;1151;23016;-75
2020/12/23 22:04:53;;;;;;;65.45;38.45;;;;;;;8.66;90.42;98086.81;250258;1156;22943;-78
2020/12/23 22:09:55;;;;;;;74.43;40.23;;;;;;;8.67;90.32;98077.70;250331;1151;22920;-77
2020/12/23 22:14:57;;;;;;;71.87;40.80;;;;;;;8.70;90.47;98073.66;250239;1156;23092;-77
2020/12/23 22:20:00;;;;;;;76.73;43.70;;;;;;;8.68;90.73;98065.94;250336;1155;22940;-76
2020/12/23 22:25:02;;;;;;;63.50;38.20;;;;;;;8.62;90.31;98045.77;250682;1150;22916;-76
2020/12/23 22:30:04;;;;;;;67.10;39.63;;;;;;;8.57;90.67;98037.83;250443;1151;22922;-76
2020/12/23 22:35:07;;;;;;;67.57;38.60;;;;;;;8.52;90.22;98027.23;250542;1148;22956;-77
2020/12/23 22:40:10;;;;;;;62.77;37.10;;;;;;;8.49;90.47;98025.16;250729;1148;23027;-76
2020/12/23 22:45:13;;;;;;;62.43;36.03;;;;;;;8.44;90.41;98015.33;250721;1148;22941;-77
2020/12/23 22:50:16;;;;;;;65.30;37.73;;;;;;;8.39;90.63;98005.55;250522;1151;22947;-77
2020/12/23 22:55:18;;;;;;;66.33;37.97;;;;;;;8.35;90.42;98001.06;250532;1150;22963;-76
2020/12/23 23:00:25;;;;;;;68.80;40.05;;;;;;;8.33;90.61;97992.56;250621;1148;23082;-77
2020/12/23 23:05:28;;;;;;;73.83;41.83;;;;;;;8.22;90.25;97998.05;250586;1148;22940;-75
2020/12/23 23:10:31;;;;;;;67.40;38.53;;;;;;;8.20;90.38;97991.45;250826;1148;22914;-77
2020/12/23 23:15:33;;;;;;;63.10;35.45;;;;;;;8.14;90.25;97980.06;250951;1151;22861;-77